ADDS METAR Data INFO
IDs: Format: Raw Decoded Include TAF

Data at: 0210 UTC 14 Dec 2017

METAR for:KSRQ (Sarasota-Bradenton I, FL, US)
Text:KSRQ 140153Z AUTO 13004KT 10SM CLR 09/07 A3007 RMK AO2 SLP183 T00890067
Temperature: 8.9°C ( 48°F)
Dewpoint: 6.7°C ( 44°F) [RH = 86%]
Pressure (altimeter):30.07 inches Hg (1018.4 mb) [Sea level pressure: 1018.3 mb]
Winds:from the SE (130 degrees) at 5 MPH (4 knots; 2.1 m/s)
Visibility:10 or more sm (16+ km)
Ceiling:at least 12,000 feet AGL
Clouds:sky clear below 12,000 feet AGL
QC Flag:automated observation with no human augmentation